Terminal Aerodrome Forecast
Issued by NWS

Home | Current Version | Previous Version | Text Only | Print | Product List | Glossary On
Versions: 1 2 3 4 5 6 7 8 9 10 11 12
000
FTPQ31 PGUM 311100
TAFPQ
TAF

PTRO 311135Z 3112/0112 25011KT P6SM -SHRA BKN016 BKN040 OVC120
      TEMPO 3112/3116 5SM SHRA BKN015 OVC060
     FM311800 21014G20KT P6SM VCSH SCT015 BKN030 BKN120=

USA.gov is the U.S. government's official web portal to all federal, state and local government web resources and services.